createdAt,value
2019-03-04T00:01:35.554Z,13.30
2019-03-04T00:04:04.570Z,13.40
2019-03-04T00:06:33.840Z,13.40
2019-03-04T00:09:02.710Z,13.50
2019-03-04T00:11:31.625Z,13.50
2019-03-04T00:14:00.882Z,13.50
2019-03-04T00:16:29.914Z,13.50
2019-03-04T00:18:59.134Z,13.60
2019-03-04T00:21:28.119Z,13.60
2019-03-04T00:23:57.086Z,13.60
2019-03-04T00:26:25.967Z,13.60
2019-03-04T00:28:55.466Z,13.60
2019-03-04T00:31:24.335Z,13.60
2019-03-04T00:33:53.384Z,13.70
2019-03-04T00:36:22.290Z,13.60
2019-03-04T00:38:51.220Z,13.60
2019-03-04T00:41:20.095Z,13.60
2019-03-04T00:43:49.062Z,13.70
2019-03-04T00:46:18.065Z,13.70
2019-03-04T00:48:47.237Z,13.70
2019-03-04T00:51:17.488Z,13.70
2019-03-04T00:53:46.418Z,13.60
2019-03-04T00:56:15.405Z,13.70
2019-03-04T00:58:44.314Z,13.70
2019-03-04T01:01:13.226Z,13.70
2019-03-04T01:03:42.282Z,13.70
2019-03-04T01:06:11.213Z,13.60
2019-03-04T01:08:40.128Z,13.70
2019-03-04T01:11:09.042Z,13.60
2019-03-04T01:13:38.083Z,13.70
2019-03-04T01:16:07.169Z,13.60
2019-03-04T01:18:36.131Z,13.60
2019-03-04T01:21:06.621Z,13.60
2019-03-04T01:23:35.605Z,13.70
2019-03-04T01:26:04.719Z,13.70
2019-03-04T01:28:33.646Z,13.60
2019-03-04T01:31:02.498Z,13.60
2019-03-04T01:33:31.563Z,13.60
2019-03-04T01:36:00.521Z,13.60
2019-03-04T01:38:29.553Z,13.60
2019-03-04T01:40:58.405Z,13.50
2019-03-04T01:43:27.494Z,13.50
2019-03-04T01:45:56.433Z,13.40
2019-03-04T01:48:32.141Z,13.50
2019-03-04T01:51:03.403Z,13.40
2019-03-04T01:53:35.478Z,13.30
2019-03-04T01:56:14.576Z,13.30
2019-03-04T01:58:43.963Z,13.40
2019-03-04T02:01:51.613Z,13.40
2019-03-04T02:04:41.188Z,13.40
2019-03-04T02:12:51.031Z,13.20
2019-03-04T02:19:53.909Z,13.30
2019-03-04T02:22:25.589Z,13.30
2019-03-04T02:25:39.288Z,13.30
2019-03-04T02:28:09.797Z,13.30
2019-03-04T02:30:42.353Z,13.40
2019-03-04T02:33:15.920Z,13.40
2019-03-04T02:35:55.083Z,13.50
2019-03-04T02:38:33.412Z,13.50
2019-03-04T02:42:06.773Z,13.50
2019-03-04T02:43:44.211Z,13.50
2019-03-04T02:46:13.645Z,13.50
2019-03-04T02:48:42.810Z,13.50
2019-03-04T02:51:14.674Z,13.50
2019-03-04T02:53:44.051Z,13.40
2019-03-04T02:56:13.198Z,13.50
2019-03-04T02:58:42.849Z,13.50
2019-03-04T03:01:15.629Z,13.50
2019-03-04T03:03:45.132Z,13.50
2019-03-04T03:06:17.577Z,13.40
2019-03-04T03:08:49.141Z,13.40
2019-03-04T03:11:38.024Z,13.40
2019-03-04T03:14:22.339Z,13.40
2019-03-04T03:17:09.453Z,13.40
2019-03-04T03:20:07.527Z,13.40
2019-03-04T03:22:42.152Z,13.30
2019-03-04T03:25:11.472Z,13.30
2019-03-04T03:27:47.621Z,13.20
2019-03-04T03:30:22.714Z,13.30
2019-03-04T03:32:55.160Z,13.20
2019-03-04T03:35:27.501Z,13.30
2019-03-04T03:37:59.605Z,13.20
2019-03-04T03:40:31.208Z,13.20
2019-03-04T03:43:00.533Z,13.20
2019-03-04T03:45:42.071Z,13.10
2019-03-04T03:48:20.598Z,13.10
2019-03-04T03:50:49.783Z,13.10
2019-03-04T03:53:22.548Z,13.10
2019-03-04T03:55:52.432Z,13.00
2019-03-04T03:58:25.278Z,13.00
2019-03-04T04:03:53.744Z,12.90
2019-03-04T04:06:37.856Z,12.90
2019-03-04T04:09:07.773Z,12.90
2019-03-04T04:11:47.635Z,12.90
2019-03-04T04:14:17.381Z,13.00
2019-03-04T04:16:53.801Z,13.00
2019-03-04T04:19:26.714Z,13.00
2019-03-04T04:21:56.619Z,13.00
2019-03-04T04:24:26.433Z,13.00
2019-03-04T04:30:08.967Z,13.00
2019-03-04T04:32:38.448Z,12.90
2019-03-04T04:35:08.814Z,12.90
2019-03-04T04:37:46.562Z,12.90
2019-03-04T04:40:17.904Z,12.90
2019-03-04T04:42:48.594Z,12.80
2019-03-04T04:45:20.891Z,12.80
2019-03-04T04:47:51.689Z,12.80
2019-03-04T04:50:25.752Z,12.80
2019-03-04T04:52:56.544Z,12.80
2019-03-04T04:55:26.002Z,12.90
2019-03-04T04:58:08.873Z,12.90
2019-03-04T05:03:18.995Z,12.80
2019-03-04T05:05:48.425Z,12.80
2019-03-04T05:08:17.963Z,12.80
2019-03-04T05:10:56.445Z,12.80
2019-03-04T05:13:34.149Z,12.90
2019-03-04T05:16:04.828Z,12.80
2019-03-04T05:18:34.399Z,12.80
2019-03-04T05:21:09.876Z,12.90
2019-03-04T05:23:39.429Z,12.90
2019-03-04T05:29:28.532Z,12.90
2019-03-04T05:32:03.005Z,12.90
2019-03-04T05:34:53.679Z,13.00
2019-03-04T05:37:26.062Z,13.00
2019-03-04T05:39:55.764Z,13.00
2019-03-04T05:42:46.917Z,13.00
2019-03-04T05:45:27.035Z,13.10
2019-03-04T05:48:32.111Z,13.00
2019-03-04T05:51:43.554Z,13.10
2019-03-04T05:54:12.992Z,13.10
2019-03-04T05:56:48.453Z,13.20
2019-03-04T05:59:46.111Z,13.20
2019-03-04T06:02:50.123Z,13.20
2019-03-04T06:05:20.229Z,13.20
2019-03-04T06:07:58.367Z,13.20
2019-03-04T06:10:43.992Z,13.20
2019-03-04T06:13:35.481Z,13.30
2019-03-04T06:16:09.147Z,13.20
2019-03-04T06:18:38.429Z,13.20
2019-03-04T06:21:09.522Z,13.20
2019-03-04T06:23:45.254Z,13.30
2019-03-04T06:26:18.742Z,13.20
2019-03-04T06:28:48.060Z,13.20
2019-03-04T06:31:17.330Z,13.10
2019-03-04T06:33:48.870Z,13.10
2019-03-04T06:36:18.173Z,13.10
2019-03-04T06:38:47.315Z,13.00
2019-03-04T06:41:16.481Z,13.00
2019-03-04T06:43:49.164Z,13.00
2019-03-04T06:46:19.820Z,13.00
2019-03-04T06:48:55.863Z,12.80
2019-03-04T06:51:34.195Z,12.70
2019-03-04T06:54:47.512Z,12.60
2019-03-04T06:57:28.503Z,12.20
2019-03-04T07:00:45.569Z,11.60
2019-03-04T07:03:27.575Z,11.20
2019-03-04T07:05:57.056Z,10.90
2019-03-04T07:09:14.006Z,10.60
2019-03-04T07:11:44.482Z,10.20
2019-03-04T07:14:13.977Z,10.20
2019-03-04T07:16:45.316Z,10.20
2019-03-04T07:19:18.987Z,10.30
2019-03-04T07:21:48.334Z,10.40
2019-03-04T07:27:07.834Z,10.50
2019-03-04T07:29:36.994Z,10.50
2019-03-04T07:32:06.061Z,10.60
2019-03-04T07:34:35.525Z,10.60
2019-03-04T07:37:04.668Z,10.60
2019-03-04T07:39:34.211Z,10.60
2019-03-04T07:42:04.095Z,10.70
2019-03-04T07:44:37.516Z,10.80
2019-03-04T07:47:09.960Z,10.40
2019-03-04T07:49:39.528Z,10.00
2019-03-04T07:52:09.544Z,9.90
2019-03-04T07:54:55.753Z,10.00
2019-03-04T07:57:25.580Z,10.00
2019-03-04T07:59:57.164Z,10.00
2019-03-04T08:02:29.344Z,10.10
2019-03-04T08:04:58.615Z,10.20
2019-03-04T08:07:38.545Z,10.50
2019-03-04T08:10:44.547Z,10.70
2019-03-04T08:13:26.663Z,11.30
2019-03-04T08:15:57.723Z,12.30
2019-03-04T08:18:26.790Z,13.10
2019-03-04T08:20:56.072Z,13.90
2019-03-04T08:23:25.763Z,13.70
2019-03-04T08:25:56.398Z,13.70
2019-03-04T08:28:28.559Z,13.80
2019-03-04T08:30:57.708Z,13.50
2019-03-04T08:33:27.133Z,13.60
2019-03-04T08:35:59.292Z,13.20
2019-03-04T08:38:28.860Z,13.00
2019-03-04T08:40:58.142Z,12.60
2019-03-04T08:43:27.456Z,12.70
2019-03-04T08:45:56.787Z,13.70
2019-03-04T08:48:26.214Z,14.40
2019-03-04T08:50:55.589Z,14.90
2019-03-04T08:53:24.530Z,15.10
2019-03-04T08:55:53.437Z,15.10
2019-03-04T08:58:22.391Z,15.60
2019-03-04T09:00:51.398Z,15.30
2019-03-04T09:03:20.767Z,15.90
2019-03-04T09:05:49.980Z,16.00
2019-03-04T09:08:18.934Z,16.10
2019-03-04T09:10:47.937Z,15.70
2019-03-04T09:13:17.022Z,15.00
2019-03-04T09:15:45.917Z,14.20
2019-03-04T09:18:15.125Z,13.60
2019-03-04T09:20:44.487Z,13.00
2019-03-04T09:23:13.455Z,12.80
2019-03-04T09:25:45.786Z,13.00
2019-03-04T09:28:14.625Z,13.00
2019-03-04T09:30:43.555Z,12.70
2019-03-04T09:33:12.454Z,12.70
2019-03-04T09:35:41.421Z,12.50
2019-03-04T09:38:10.436Z,12.60
2019-03-04T09:40:39.426Z,12.50
2019-03-04T09:43:09.356Z,12.20
2019-03-04T09:45:39.454Z,12.30
2019-03-04T09:48:08.542Z,12.40
2019-03-04T09:50:37.541Z,12.40
2019-03-04T09:53:06.510Z,12.50
2019-03-04T09:55:36.999Z,12.30
2019-03-04T09:58:05.946Z,12.40
2019-03-04T10:00:41.016Z,12.40
2019-03-04T10:03:54.368Z,12.50
2019-03-04T10:07:07.171Z,12.50
2019-03-04T10:10:24.890Z,12.40
2019-03-04T10:13:36.650Z,12.40
2019-03-04T10:16:38.606Z,12.60
2019-03-04T10:19:46.759Z,12.60
2019-03-04T10:22:39.477Z,12.80
2019-03-04T10:25:28.305Z,14.00
2019-03-04T10:28:44.838Z,14.70
2019-03-04T10:31:44.281Z,15.20
2019-03-04T10:34:50.442Z,15.30
2019-03-04T10:37:57.117Z,15.60
2019-03-04T10:40:58.033Z,16.50
2019-03-04T10:44:17.487Z,17.30
2019-03-04T10:46:57.820Z,17.80
2019-03-04T10:49:28.396Z,18.40
2019-03-04T10:51:57.389Z,18.20
2019-03-04T10:54:27.523Z,17.00
2019-03-04T10:56:57.191Z,16.70
2019-03-04T10:59:26.429Z,16.70
2019-03-04T11:01:55.537Z,17.80
2019-03-04T11:04:24.454Z,17.40
2019-03-04T11:06:54.900Z,16.80
2019-03-04T11:09:24.034Z,17.10
2019-03-04T11:11:53.106Z,17.00
2019-03-04T11:14:21.998Z,17.70
2019-03-04T11:16:50.927Z,17.70
2019-03-04T11:19:19.853Z,16.80
2019-03-04T11:21:48.763Z,17.20
2019-03-04T11:24:17.825Z,17.00
2019-03-04T11:26:46.724Z,16.90
2019-03-04T11:29:17.218Z,16.40
2019-03-04T11:31:46.361Z,15.70
2019-03-04T11:34:15.269Z,14.90
2019-03-04T11:36:44.251Z,14.80
2019-03-04T11:39:55.099Z,14.50
2019-03-04T11:42:24.054Z,14.30
2019-03-04T11:44:53.089Z,14.10
2019-03-04T11:47:25.693Z,14.20
2019-03-04T11:49:54.677Z,13.80
2019-03-04T11:52:23.654Z,13.60
2019-03-04T11:54:52.584Z,13.60
2019-03-04T11:57:21.770Z,13.40
2019-03-04T11:59:50.778Z,13.50
2019-03-04T12:02:21.307Z,13.60
2019-03-04T12:04:50.181Z,13.50
2019-03-04T12:07:19.247Z,13.30
2019-03-04T12:09:48.150Z,13.10
2019-03-04T12:12:17.018Z,12.20
2019-03-04T12:14:45.843Z,10.50
2019-03-04T12:17:14.756Z,9.40
2019-03-04T12:19:43.662Z,8.60
2019-03-04T12:22:12.622Z,8.50
2019-03-04T12:24:41.415Z,8.30
2019-03-04T12:27:10.401Z,8.10
2019-03-04T12:29:39.359Z,7.80
2019-03-04T12:32:18.528Z,8.00
2019-03-04T12:34:47.457Z,8.30
2019-03-04T12:37:16.415Z,8.40
2019-03-04T12:39:45.238Z,8.50
2019-03-04T12:42:14.108Z,8.70
2019-03-04T12:44:42.991Z,8.50
2019-03-04T12:47:11.806Z,8.50
2019-03-04T12:49:40.715Z,8.70
2019-03-04T12:52:09.566Z,8.70
2019-03-04T12:54:38.523Z,8.70
2019-03-04T12:57:07.485Z,8.70
2019-03-04T12:59:36.389Z,8.70
2019-03-04T13:02:05.341Z,8.90
2019-03-04T13:04:34.497Z,9.00
2019-03-04T13:07:03.391Z,9.30
2019-03-04T13:09:32.558Z,9.20
2019-03-04T13:12:01.543Z,9.40
2019-03-04T13:14:30.472Z,9.60
2019-03-04T13:16:59.450Z,9.40
2019-03-04T13:19:28.331Z,9.20
2019-03-04T13:21:57.256Z,9.10
2019-03-04T13:24:26.096Z,9.30
2019-03-04T13:26:54.958Z,9.50
2019-03-04T13:29:23.800Z,9.80
2019-03-04T13:31:52.671Z,9.80
2019-03-04T13:34:21.677Z,9.80
2019-03-04T13:36:50.528Z,9.60
2019-03-04T13:39:19.359Z,9.70
2019-03-04T13:41:48.288Z,9.50
2019-03-04T13:44:17.110Z,9.60
2019-03-04T13:46:46.102Z,9.70
2019-03-04T13:49:15.033Z,9.70
2019-03-04T13:51:44.176Z,9.40
2019-03-04T13:54:13.089Z,9.50
2019-03-04T13:56:41.941Z,9.40
2019-03-04T13:59:10.786Z,9.50
2019-03-04T14:01:39.821Z,9.50
2019-03-04T14:04:08.754Z,9.40
2019-03-04T14:06:37.650Z,9.40
2019-03-04T14:09:07.208Z,9.70
2019-03-04T14:11:36.206Z,9.60
2019-03-04T14:14:05.403Z,9.70
2019-03-04T14:16:34.307Z,9.90
2019-03-04T14:19:03.213Z,10.30
2019-03-04T14:21:32.105Z,10.90
2019-03-04T14:24:00.937Z,11.30
2019-03-04T14:26:29.931Z,11.40
2019-03-04T14:28:58.980Z,11.60
2019-03-04T14:31:27.907Z,11.50
2019-03-04T14:33:56.735Z,11.80
2019-03-04T14:36:25.565Z,11.80
2019-03-04T14:38:54.457Z,12.00
2019-03-04T14:41:23.467Z,11.70
2019-03-04T14:43:52.401Z,11.70
2019-03-04T14:46:25.695Z,11.50
2019-03-04T14:48:54.766Z,11.30
2019-03-04T14:51:23.758Z,11.30
2019-03-04T14:53:53.912Z,11.20
2019-03-04T14:56:23.681Z,10.60
2019-03-04T14:59:09.858Z,10.40
2019-03-04T15:01:24.266Z,10.40
2019-03-04T15:03:53.837Z,10.40
2019-03-04T15:06:23.374Z,10.40
2019-03-04T15:08:53.695Z,10.20
2019-03-04T15:11:23.931Z,10.30
2019-03-04T15:13:53.482Z,10.30
2019-03-04T15:16:22.787Z,10.20
2019-03-04T15:18:52.090Z,10.30
2019-03-04T15:21:21.239Z,10.30
2019-03-04T15:23:52.623Z,10.40
2019-03-04T15:26:22.121Z,10.30
2019-03-04T15:28:53.107Z,10.30
2019-03-04T15:31:22.524Z,10.10
2019-03-04T15:33:53.987Z,10.10
2019-03-04T15:36:24.771Z,9.90
2019-03-04T15:38:54.278Z,10.00
2019-03-04T15:41:23.936Z,10.00
2019-03-04T15:43:57.024Z,10.20
2019-03-04T15:46:30.211Z,10.10
2019-03-04T15:48:59.894Z,10.20
2019-03-04T15:51:29.076Z,10.20
2019-03-04T15:53:58.542Z,10.30
2019-03-04T15:56:29.952Z,10.30
2019-03-04T15:58:59.195Z,10.10
2019-03-04T16:01:28.847Z,10.20
2019-03-04T16:03:58.111Z,10.10
2019-03-04T16:06:27.623Z,10.10
2019-03-04T16:08:56.767Z,10.10
2019-03-04T16:11:26.249Z,10.20
2019-03-04T16:13:56.309Z,10.20
2019-03-04T16:16:25.662Z,10.20
2019-03-04T16:18:54.883Z,10.20
2019-03-04T16:21:24.063Z,10.20
2019-03-04T16:23:53.295Z,10.10
2019-03-04T16:26:22.428Z,10.20
2019-03-04T16:28:51.613Z,10.20
2019-03-04T16:31:20.694Z,10.30
2019-03-04T16:33:49.930Z,10.40
2019-03-04T16:36:20.751Z,10.30
2019-03-04T16:38:49.985Z,10.40
2019-03-04T16:41:19.407Z,10.30
2019-03-04T16:43:49.063Z,10.30
2019-03-04T16:46:26.330Z,10.40
2019-03-04T16:48:55.800Z,10.10
2019-03-04T16:51:27.698Z,10.00
2019-03-04T16:53:56.443Z,9.90
2019-03-04T16:56:28.799Z,9.80
2019-03-04T16:59:07.822Z,9.80
2019-03-04T17:01:36.930Z,9.60
2019-03-04T17:04:06.475Z,9.60
2019-03-04T17:06:35.867Z,9.50
2019-03-04T17:09:17.962Z,9.60
2019-03-04T17:11:47.366Z,9.40
2019-03-04T17:14:16.666Z,9.40
2019-03-04T17:16:46.265Z,9.50
2019-03-04T17:19:15.419Z,9.70
2019-03-04T17:21:44.476Z,10.60
2019-03-04T17:24:13.983Z,11.80
2019-03-04T17:26:43.196Z,13.00
2019-03-04T17:29:12.960Z,14.50
2019-03-04T17:31:42.711Z,13.90
2019-03-04T17:34:12.093Z,14.70
2019-03-04T17:36:41.475Z,14.60
2019-03-04T17:39:11.409Z,15.50
2019-03-04T17:41:40.656Z,15.20
2019-03-04T17:44:10.007Z,14.50
2019-03-04T17:46:39.496Z,14.20
2019-03-04T17:49:11.244Z,14.60
2019-03-04T17:51:40.704Z,15.20
2019-03-04T17:54:10.318Z,15.00
2019-03-04T17:56:39.812Z,14.10
2019-03-04T17:59:15.565Z,14.10
2019-03-04T18:01:45.318Z,13.10
2019-03-04T18:04:14.921Z,12.40
2019-03-04T18:06:44.601Z,11.80
2019-03-04T18:12:02.887Z,10.50
2019-03-04T18:14:34.188Z,10.00
2019-03-04T18:17:03.577Z,9.80
2019-03-04T18:19:33.022Z,9.70
2019-03-04T18:22:03.470Z,9.70
2019-03-04T18:24:37.809Z,9.70
2019-03-04T18:27:11.524Z,9.60
2019-03-04T18:30:16.282Z,9.40
2019-03-04T18:33:15.728Z,9.50
2019-03-04T18:36:15.445Z,9.40
2019-03-04T18:39:16.715Z,9.40
2019-03-04T18:42:28.540Z,9.40
2019-03-04T18:45:23.032Z,9.50
2019-03-04T18:48:14.689Z,9.30
2019-03-04T18:50:43.779Z,9.20
2019-03-04T18:53:13.788Z,9.10
2019-03-04T18:55:42.947Z,9.10
2019-03-04T18:58:12.390Z,9.10
2019-03-04T19:00:52.013Z,9.00
2019-03-04T19:03:21.137Z,8.90
2019-03-04T19:05:50.786Z,8.90
2019-03-04T19:08:20.039Z,8.90
2019-03-04T19:10:49.791Z,9.00
2019-03-04T19:13:18.896Z,9.00
2019-03-04T19:15:49.376Z,9.10
2019-03-04T19:18:19.318Z,9.10
2019-03-04T19:20:54.952Z,9.10
2019-03-04T19:23:24.320Z,9.10
2019-03-04T19:25:57.661Z,9.10
2019-03-04T19:28:27.078Z,9.10
2019-03-04T19:30:57.352Z,9.00
2019-03-04T19:33:27.020Z,8.70
2019-03-04T19:36:04.798Z,8.70
2019-03-04T19:38:36.850Z,8.70
2019-03-04T19:41:06.131Z,8.70
2019-03-04T19:43:35.535Z,8.80
2019-03-04T19:46:04.889Z,8.70
2019-03-04T19:48:34.972Z,8.60
2019-03-04T19:51:15.138Z,8.70
2019-03-04T19:53:44.752Z,8.70
2019-03-04T19:56:14.079Z,8.60
2019-03-04T19:58:49.201Z,8.50
2019-03-04T20:01:18.523Z,8.50
2019-03-04T20:03:48.071Z,8.50
2019-03-04T20:06:17.378Z,8.50
2019-03-04T20:08:46.892Z,8.60
2019-03-04T20:11:17.525Z,8.50
2019-03-04T20:13:50.020Z,8.60
2019-03-04T20:16:19.219Z,8.60
2019-03-04T20:18:48.550Z,8.60
2019-03-04T20:21:17.626Z,8.60
2019-03-04T20:23:46.872Z,8.70
2019-03-04T20:26:19.584Z,8.80
2019-03-04T20:28:49.353Z,8.60
2019-03-04T20:31:18.573Z,8.80
2019-03-04T20:33:48.895Z,8.80
2019-03-04T20:36:28.990Z,8.80
2019-03-04T20:38:59.283Z,8.90
2019-03-04T20:41:28.547Z,8.90
2019-03-04T20:44:03.212Z,8.90
2019-03-04T20:46:40.144Z,8.80
2019-03-04T20:49:09.463Z,8.90
2019-03-04T20:51:39.176Z,8.80
2019-03-04T20:54:09.722Z,8.70
2019-03-04T20:56:38.817Z,8.70
2019-03-04T20:59:08.005Z,8.60
2019-03-04T21:01:37.187Z,8.60
2019-03-04T21:04:06.259Z,8.60
2019-03-04T21:06:35.322Z,8.60
2019-03-04T21:09:06.108Z,8.50
2019-03-04T21:11:35.183Z,8.40
2019-03-04T21:14:04.353Z,8.30
2019-03-04T21:16:33.702Z,8.20
2019-03-04T21:19:03.074Z,8.10
2019-03-04T21:21:32.244Z,8.00
2019-03-04T21:24:01.197Z,8.00
2019-03-04T21:26:37.356Z,8.00
2019-03-04T21:29:32.672Z,8.00
2019-03-04T21:32:18.712Z,8.10
2019-03-04T21:35:28.986Z,8.20
2019-03-04T21:37:58.052Z,8.20
2019-03-04T21:41:07.219Z,8.30
2019-03-04T21:43:43.532Z,8.20
2019-03-04T21:46:47.954Z,8.20
2019-03-04T21:49:18.253Z,8.30
2019-03-04T21:52:38.063Z,8.40
2019-03-04T21:55:11.116Z,8.50
2019-03-04T21:57:44.195Z,8.50
2019-03-04T22:00:20.903Z,8.50
2019-03-04T22:03:05.600Z,8.50
2019-03-04T22:05:34.577Z,8.50
2019-03-04T22:08:03.824Z,8.40
2019-03-04T22:10:33.292Z,8.40
2019-03-04T22:13:02.396Z,8.40
2019-03-04T22:15:31.564Z,8.40
2019-03-04T22:18:03.533Z,8.30
2019-03-04T22:20:32.604Z,8.30
2019-03-04T22:23:01.725Z,8.40
2019-03-04T22:25:31.075Z,8.30
2019-03-04T22:28:00.196Z,8.30
2019-03-04T22:30:29.386Z,8.40
2019-03-04T22:32:58.356Z,8.40
2019-03-04T22:35:27.450Z,8.40
2019-03-04T22:37:56.701Z,8.30
2019-03-04T22:40:25.777Z,8.40
2019-03-04T22:42:55.098Z,8.30
2019-03-04T22:45:24.297Z,8.30
2019-03-04T22:47:53.311Z,8.30
2019-03-04T22:50:22.387Z,8.40
2019-03-04T22:52:51.778Z,8.30
2019-03-04T22:55:29.320Z,8.20
2019-03-04T22:57:58.444Z,8.20
2019-03-04T23:01:17.225Z,8.20
2019-03-04T23:03:46.623Z,8.20
2019-03-04T23:06:19.186Z,8.10
2019-03-04T23:08:48.215Z,8.10
2019-03-04T23:11:17.438Z,8.10
2019-03-04T23:13:53.495Z,8.20
2019-03-04T23:16:27.771Z,8.20
2019-03-04T23:18:56.944Z,8.20
2019-03-04T23:21:25.925Z,8.20
2019-03-04T23:23:54.997Z,8.20
2019-03-04T23:26:24.110Z,8.20
2019-03-04T23:28:53.527Z,8.10
2019-03-04T23:31:22.770Z,8.10
2019-03-04T23:33:51.758Z,8.10
2019-03-04T23:36:20.704Z,8.10
2019-03-04T23:38:49.668Z,8.10
2019-03-04T23:41:18.680Z,8.10
2019-03-04T23:43:47.938Z,8.10
2019-03-04T23:46:16.992Z,8.00
2019-03-04T23:48:46.334Z,7.90
2019-03-04T23:51:15.438Z,7.90
2019-03-04T23:53:44.645Z,7.90
2019-03-04T23:56:13.735Z,7.90
2019-03-04T23:58:42.668Z,8.00
